Time;durP1;ratioP1;P1;durP2;ratioP2;P2;SDS_P1;SDS_P2;PMS_P1;PMS_P2;Temp;Humidity;BMP_temperature;BMP_pressure;BME280_temperature;BME280_humidity;BME280_pressure;Samples;Min_cycle;Max_cycle;Signal;HPM_P1;HPM_P2
2023/10/15 00:01:39;;;;;;;3.50;0.70;;;7.00;99.90;;;;;;5080910;28;20979;-46
2023/10/15 00:04:08;;;;;;;1.93;0.40;;;7.00;99.90;;;;;;5053082;28;20703;-45
2023/10/15 00:06:35;;;;;;;2.53;0.40;;;7.00;99.90;;;;;;5079086;28;20251;-45
2023/10/15 00:09:04;;;;;;;1.27;0.30;;;7.00;99.90;;;;;;5084985;28;20237;-46
2023/10/15 00:11:31;;;;;;;4.30;0.40;;;7.00;99.90;;;;;;5082694;28;21030;-46
2023/10/15 00:13:58;;;;;;;1.90;0.43;;;7.00;99.90;;;;;;5085997;28;20194;-44
2023/10/15 00:16:26;;;;;;;0.53;0.40;;;7.00;99.90;;;;;;5084994;28;20259;-48
2023/10/15 00:18:54;;;;;;;3.50;0.40;;;7.00;99.90;;;;;;5057410;28;20202;-48
2023/10/15 00:21:21;;;;;;;1.53;0.43;;;7.00;99.90;;;;;;5067281;28;20283;-46
2023/10/15 00:23:48;;;;;;;1.93;0.70;;;7.00;99.90;;;;;;5088161;28;20205;-45
2023/10/15 00:26:15;;;;;;;1.30;0.40;;;7.10;99.90;;;;;;5088263;28;20695;-52
2023/10/15 00:28:49;;;;;;;1.67;0.53;;;7.10;99.90;;;;;;5089828;28;20354;-46
2023/10/15 00:31:17;;;;;;;1.20;0.77;;;7.00;99.90;;;;;;5087695;28;20914;-47
2023/10/15 00:33:46;;;;;;;0.70;0.30;;;7.00;99.90;;;;;;5055746;28;20271;-47
2023/10/15 00:36:15;;;;;;;1.57;0.47;;;6.90;99.90;;;;;;5087457;28;20247;-49
2023/10/15 00:38:43;;;;;;;0.70;0.60;;;7.00;99.90;;;;;;5088118;28;20414;-47
2023/10/15 00:41:10;;;;;;;0.83;0.43;;;7.00;99.90;;;;;;5088325;28;20584;-49
2023/10/15 00:43:50;;;;;;;4.37;0.40;;;7.00;99.90;;;;;;5085819;28;20932;-47
2023/10/15 00:46:18;;;;;;;1.63;0.57;;;7.00;99.90;;;;;;5066049;28;20193;-49
2023/10/15 00:48:47;;;;;;;1.43;0.70;;;7.00;99.90;;;;;;5037363;28;20312;-48
2023/10/15 00:51:16;;;;;;;2.50;0.57;;;7.00;99.90;;;;;;5065434;28;20214;-50
2023/10/15 00:53:49;;;;;;;2.37;0.70;;;7.00;99.90;;;;;;5084664;28;20185;-45
2023/10/15 00:56:21;;;;;;;2.80;0.70;;;7.00;99.90;;;;;;5088278;28;20209;-47
2023/10/15 00:59:08;;;;;;;4.63;1.13;;;7.00;99.90;;;;;;5067519;28;20190;-45
2023/10/15 01:01:38;;;;;;;4.97;0.93;;;7.00;99.90;;;;;;5082304;28;20231;-50
2023/10/15 01:04:06;;;;;;;3.53;0.53;;;7.00;99.90;;;;;;5054305;28;20725;-44
2023/10/15 01:06:38;;;;;;;3.17;0.70;;;7.00;99.90;;;;;;5081215;28;20186;-44
2023/10/15 01:09:10;;;;;;;1.63;0.67;;;7.00;99.90;;;;;;5084247;28;20216;-47
2023/10/15 01:11:37;;;;;;;0.93;0.40;;;7.00;99.90;;;;;;5081228;28;20209;-45
2023/10/15 01:14:05;;;;;;;3.00;0.70;;;6.90;99.90;;;;;;5081932;28;20200;-47
2023/10/15 01:16:36;;;;;;;6.63;0.90;;;7.00;99.90;;;;;;5060332;28;20703;-45
2023/10/15 01:19:14;;;;;;;2.60;0.77;;;7.00;99.90;;;;;;5052690;28;20194;-48
2023/10/15 01:21:49;;;;;;;1.80;0.50;;;7.00;99.90;;;;;;5061713;28;20262;-48
2023/10/15 01:24:18;;;;;;;1.33;0.50;;;7.00;99.90;;;;;;5063419;28;20251;-50
2023/10/15 01:26:53;;;;;;;3.87;1.00;;;7.00;99.90;;;;;;5063994;28;20186;-47
2023/10/15 01:29:23;;;;;;;2.57;0.60;;;7.00;99.90;;;;;;5083021;28;20202;-48
2023/10/15 01:31:51;;;;;;;3.37;0.73;;;7.00;99.90;;;;;;5084079;28;20225;-44
2023/10/15 01:34:21;;;;;;;1.90;0.50;;;7.00;99.90;;;;;;5046721;28;20335;-50
2023/10/15 01:36:48;;;;;;;1.97;0.60;;;7.00;99.90;;;;;;5064678;28;20289;-44
2023/10/15 01:39:21;;;;;;;1.80;0.50;;;7.00;99.90;;;;;;5084148;28;20186;-47
2023/10/15 01:41:55;;;;;;;3.93;0.60;;;7.10;99.90;;;;;;5084629;28;20220;-46
2023/10/15 01:44:24;;;;;;;1.53;0.60;;;7.10;99.90;;;;;;5077447;28;20212;-48
2023/10/15 01:47:07;;;;;;;2.10;0.40;;;7.10;99.90;;;;;;5083955;28;20826;-47
2023/10/15 01:49:34;;;;;;;2.67;0.63;;;7.10;99.90;;;;;;5046720;28;21110;-46
2023/10/15 01:52:06;;;;;;;5.10;0.90;;;7.10;99.90;;;;;;5082481;28;20214;-47
2023/10/15 01:54:35;;;;;;;1.20;0.50;;;7.10;99.90;;;;;;5082388;28;20189;-46
2023/10/15 01:57:06;;;;;;;4.43;0.63;;;7.10;99.90;;;;;;5089380;28;20194;-46
2023/10/15 01:59:45;;;;;;;3.40;0.50;;;7.00;99.90;;;;;;5067811;28;20189;-48
2023/10/15 02:02:13;;;;;;;4.27;0.77;;;7.00;99.90;;;;;;5069484;28;20275;-47
2023/10/15 02:04:44;;;;;;;3.73;0.77;;;7.00;99.90;;;;;;5067842;28;20190;-49
2023/10/15 02:07:13;;;;;;;2.87;0.53;;;7.00;99.90;;;;;;5052200;28;20208;-49
2023/10/15 02:09:43;;;;;;;2.30;1.20;;;7.10;99.90;;;;;;5085781;28;20799;-47
2023/10/15 02:12:12;;;;;;;3.10;0.60;;;7.00;99.90;;;;;;5086336;28;20197;-49
2023/10/15 02:14:41;;;;;;;2.03;0.67;;;7.00;99.90;;;;;;5067026;28;20201;-45
2023/10/15 02:17:13;;;;;;;2.63;1.10;;;7.00;99.90;;;;;;5066469;28;20197;-46
2023/10/15 02:19:44;;;;;;;2.27;0.50;;;7.00;99.90;;;;;;5082835;28;20262;-48
2023/10/15 02:22:13;;;;;;;5.57;0.73;;;7.00;99.90;;;;;;5037260;28;20212;-46
2023/10/15 02:24:46;;;;;;;1.20;0.50;;;7.10;99.90;;;;;;5063332;28;20477;-45
2023/10/15 02:27:17;;;;;;;1.33;0.47;;;7.00;99.90;;;;;;5063817;28;20193;-46
2023/10/15 02:29:49;;;;;;;4.63;0.73;;;7.00;99.90;;;;;;5080492;28;20217;-45
2023/10/15 02:32:25;;;;;;;2.77;0.50;;;7.00;99.90;;;;;;5080158;28;20212;-49
2023/10/15 02:34:57;;;;;;;2.77;0.57;;;7.00;99.90;;;;;;5063133;28;20286;-50
2023/10/15 02:37:26;;;;;;;3.80;0.40;;;7.00;99.90;;;;;;5033438;28;20194;-52
2023/10/15 02:39:53;;;;;;;2.40;0.90;;;7.00;99.90;;;;;;5089190;28;20200;-46
2023/10/15 02:42:30;;;;;;;0.53;0.33;;;6.90;99.90;;;;;;5066363;28;20301;-47
2023/10/15 02:44:58;;;;;;;1.13;0.43;;;6.90;99.90;;;;;;5088982;28;20590;-46
2023/10/15 02:47:31;;;;;;;2.37;0.70;;;6.90;99.90;;;;;;5065268;28;20197;-48
2023/10/15 02:50:01;;;;;;;2.83;0.60;;;6.90;99.90;;;;;;5081572;28;20226;-48
2023/10/15 02:52:35;;;;;;;2.93;0.50;;;6.90;99.90;;;;;;5083642;28;20194;-47
2023/10/15 02:55:08;;;;;;;4.27;0.50;;;6.90;99.90;;;;;;5057562;28;20659;-46
2023/10/15 02:57:39;;;;;;;2.43;0.70;;;6.90;99.90;;;;;;5074429;28;20267;-46
2023/10/15 03:00:13;;;;;;;1.43;0.77;;;6.90;99.90;;;;;;5094330;28;20270;-45
2023/10/15 03:02:43;;;;;;;1.03;0.57;;;6.90;99.90;;;;;;5093888;28;20875;-45
2023/10/15 03:05:13;;;;;;;3.57;0.50;;;6.90;99.90;;;;;;5092114;28;20193;-49
2023/10/15 03:07:42;;;;;;;2.63;0.40;;;6.80;99.90;;;;;;5072548;28;20202;-49
2023/10/15 03:10:10;;;;;;;1.20;0.60;;;6.80;99.90;;;;;;5042179;28;20250;-47
2023/10/15 03:12:43;;;;;;;2.47;0.57;;;6.90;99.90;;;;;;5073153;28;20196;-50
2023/10/15 03:15:13;;;;;;;0.87;0.30;;;6.80;99.90;;;;;;5069567;28;20197;-47
2023/10/15 03:17:42;;;;;;;1.17;0.40;;;6.80;99.90;;;;;;5071993;28;20284;-49
2023/10/15 03:20:25;;;;;;;3.10;0.60;;;6.90;99.90;;;;;;5066646;28;20207;-46
2023/10/15 03:22:58;;;;;;;2.20;0.30;;;6.80;99.90;;;;;;5085539;28;20987;-47
2023/10/15 03:25:26;;;;;;;1.97;0.70;;;6.80;99.90;;;;;;5034932;28;20205;-48
2023/10/15 03:27:59;;;;;;;1.03;0.47;;;6.80;99.90;;;;;;5085420;28;20194;-47
2023/10/15 03:30:26;;;;;;;1.60;0.40;;;6.80;99.90;;;;;;5083610;28;20206;-45
2023/10/15 03:32:54;;;;;;;1.77;0.47;;;6.80;99.90;;;;;;5086787;28;20248;-50
2023/10/15 03:35:32;;;;;;;2.53;0.43;;;6.80;99.90;;;;;;5086642;28;20209;-45
2023/10/15 03:38:04;;;;;;;4.27;0.53;;;6.80;99.90;;;;;;5081370;28;20189;-48
2023/10/15 03:40:38;;;;;;;2.30;0.60;;;6.80;99.90;;;;;;5033698;28;20229;-45
2023/10/15 03:43:15;;;;;;;5.93;0.70;;;6.80;99.90;;;;;;5079776;28;20221;-46
2023/10/15 03:45:50;;;;;;;2.93;0.60;;;6.80;99.90;;;;;;5083701;28;20276;-48
2023/10/15 03:48:18;;;;;;;2.43;0.40;;;6.70;99.90;;;;;;5083443;28;20534;-45
2023/10/15 03:50:54;;;;;;;1.63;0.40;;;6.70;99.90;;;;;;5081970;28;20308;-50
2023/10/15 03:53:22;;;;;;;1.73;0.40;;;6.70;99.90;;;;;;5083676;28;20197;-45
2023/10/15 03:55:50;;;;;;;1.60;0.50;;;6.60;99.90;;;;;;5064857;28;20624;-46
2023/10/15 03:58:21;;;;;;;1.67;0.60;;;6.70;99.90;;;;;;5077341;28;20216;-46
2023/10/15 04:00:54;;;;;;;2.80;0.50;;;6.70;99.90;;;;;;5089754;28;20218;-50
2023/10/15 04:03:28;;;;;;;1.57;0.70;;;6.60;99.90;;;;;;5092678;28;20244;-45
2023/10/15 04:06:00;;;;;;;1.27;0.50;;;6.70;99.90;;;;;;5086379;28;20272;-49
2023/10/15 04:08:27;;;;;;;2.57;0.57;;;6.70;99.90;;;;;;5089979;28;20194;-46
2023/10/15 04:10:56;;;;;;;2.63;0.60;;;6.70;99.90;;;;;;5085898;28;20214;-52
2023/10/15 04:13:26;;;;;;;1.47;0.67;;;6.70;99.90;;;;;;5057103;28;20213;-50
2023/10/15 04:15:54;;;;;;;3.90;0.63;;;6.70;99.90;;;;;;5087294;28;20203;-48
2023/10/15 04:18:22;;;;;;;2.23;0.50;;;6.70;99.90;;;;;;5091972;28;20217;-48
2023/10/15 04:20:50;;;;;;;1.87;0.40;;;6.70;99.90;;;;;;5089081;28;20579;-49
2023/10/15 04:23:30;;;;;;;0.70;0.40;;;6.70;99.90;;;;;;5090613;28;20998;-44
2023/10/15 04:26:00;;;;;;;2.37;0.60;;;6.70;99.90;;;;;;5087961;28;20182;-45
2023/10/15 04:28:30;;;;;;;2.47;0.73;;;6.70;99.90;;;;;;5060098;28;20205;-45
2023/10/15 04:30:57;;;;;;;1.60;0.50;;;6.60;99.90;;;;;;5083228;28;20226;-45
2023/10/15 04:33:27;;;;;;;2.37;0.50;;;6.60;99.90;;;;;;5088161;28;20194;-46
2023/10/15 04:35:56;;;;;;;2.17;0.60;;;6.60;99.90;;;;;;5082799;28;20256;-49
2023/10/15 04:38:28;;;;;;;2.37;0.80;;;6.60;99.90;;;;;;5088290;28;20290;-48
2023/10/15 04:41:01;;;;;;;3.13;0.77;;;6.60;99.90;;;;;;5082765;28;20350;-51
2023/10/15 04:43:30;;;;;;;1.87;0.67;;;6.60;99.90;;;;;;5051569;28;20679;-49
2023/10/15 04:45:58;;;;;;;1.97;0.50;;;6.60;99.90;;;;;;5079298;28;20190;-49
2023/10/15 04:48:27;;;;;;;1.20;0.30;;;6.50;99.90;;;;;;5090069;28;20197;-47
2023/10/15 04:50:54;;;;;;;1.00;0.43;;;6.50;99.90;;;;;;5084593;28;20220;-52
2023/10/15 04:53:26;;;;;;;3.53;0.53;;;6.60;99.90;;;;;;5085408;28;20571;-48
2023/10/15 04:55:54;;;;;;;1.80;0.87;;;6.50;99.90;;;;;;5080003;28;20216;-50
2023/10/15 04:58:21;;;;;;;2.17;0.60;;;6.50;99.90;;;;;;5056371;28;20208;-48
2023/10/15 05:00:49;;;;;;;4.00;0.50;;;6.50;99.90;;;;;;5092208;28;20672;-48
2023/10/15 05:03:17;;;;;;;4.20;0.60;;;6.50;99.90;;;;;;5085932;28;20209;-46
2023/10/15 05:05:44;;;;;;;2.43;0.60;;;6.50;99.90;;;;;;5086987;28;20217;-47
2023/10/15 05:08:11;;;;;;;3.07;0.60;;;6.50;99.90;;;;;;5088446;28;20193;-47
2023/10/15 05:10:44;;;;;;;1.53;0.63;;;6.60;99.90;;;;;;5089387;28;20229;-46
2023/10/15 05:13:11;;;;;;;3.43;0.50;;;6.60;99.90;;;;;;5087648;28;20206;-47
2023/10/15 05:15:38;;;;;;;0.93;0.50;;;6.60;99.90;;;;;;5056723;28;20209;-50
2023/10/15 05:18:07;;;;;;;3.83;1.00;;;6.60;99.90;;;;;;5085259;28;20877;-49
2023/10/15 05:20:36;;;;;;;1.73;0.57;;;6.60;99.90;;;;;;5085315;28;20228;-50
2023/10/15 05:23:03;;;;;;;2.07;0.30;;;6.60;99.90;;;;;;5082975;28;20190;-52
2023/10/15 05:25:30;;;;;;;1.27;0.50;;;6.50;99.90;;;;;;5085613;28;20193;-44
2023/10/15 05:27:59;;;;;;;1.37;0.53;;;6.50;99.90;;;;;;5078643;28;20259;-45
2023/10/15 05:30:27;;;;;;;3.07;1.40;;;6.50;99.90;;;;;;5055929;28;20296;-45
2023/10/15 05:32:54;;;;;;;3.37;0.60;;;6.50;99.90;;;;;;5079177;28;20222;-50
2023/10/15 05:35:22;;;;;;;0.43;0.40;;;6.50;99.90;;;;;;5082687;28;20255;-45
2023/10/15 05:37:49;;;;;;;4.03;0.67;;;6.50;99.90;;;;;;5081203;28;20190;-49
2023/10/15 05:40:16;;;;;;;1.47;0.40;;;6.50;99.90;;;;;;5082680;28;20206;-47
2023/10/15 05:42:43;;;;;;;0.93;0.40;;;6.50;99.90;;;;;;5083741;28;20665;-48
2023/10/15 05:45:11;;;;;;;1.30;0.20;;;6.60;99.90;;;;;;5053044;28;20322;-47
2023/10/15 05:47:39;;;;;;;2.10;0.50;;;6.60;99.90;;;;;;5086095;28;20230;-51
2023/10/15 05:50:07;;;;;;;2.10;0.70;;;6.60;99.90;;;;;;5079378;28;20209;-46
2023/10/15 05:52:35;;;;;;;4.40;0.70;;;6.60;99.90;;;;;;5083147;28;20246;-45
2023/10/15 05:55:05;;;;;;;3.10;0.63;;;6.60;99.90;;;;;;5074576;28;20198;-45
2023/10/15 05:57:31;;;;;;;3.23;0.50;;;6.60;99.90;;;;;;5080162;28;20190;-49
2023/10/15 06:00:17;;;;;;;2.93;0.80;;;6.60;99.90;;;;;;5051430;28;20224;-48
2023/10/15 06:02:44;;;;;;;1.50;0.63;;;6.60;99.90;;;;;;5079807;28;20609;-50
2023/10/15 06:05:13;;;;;;;3.10;0.50;;;6.60;99.90;;;;;;5085734;28;20912;-50
2023/10/15 06:07:42;;;;;;;1.27;0.70;;;6.60;99.90;;;;;;5086984;28;20194;-52
2023/10/15 06:10:09;;;;;;;3.03;0.40;;;6.50;99.90;;;;;;5083736;28;20206;-46
2023/10/15 06:12:36;;;;;;;1.60;0.60;;;6.50;99.90;;;;;;5085876;28;20202;-46
2023/10/15 06:15:04;;;;;;;1.17;0.67;;;6.50;99.90;;;;;;5080179;28;20951;-46
2023/10/15 06:17:31;;;;;;;0.83;0.57;;;6.60;99.90;;;;;;5052964;28;20194;-47
2023/10/15 06:19:58;;;;;;;3.53;0.60;;;6.60;99.90;;;;;;5080552;28;20194;-48
2023/10/15 06:22:25;;;;;;;2.70;0.77;;;6.60;99.90;;;;;;5082401;28;20778;-48
2023/10/15 06:24:54;;;;;;;2.13;0.77;;;6.60;99.90;;;;;;5078897;28;20201;-51
2023/10/15 06:27:21;;;;;;;7.50;1.37;;;6.60;99.90;;;;;;5087237;28;20698;-52
2023/10/15 06:29:47;;;;;;;1.57;0.77;;;6.60;99.90;;;;;;5068934;28;20266;-46
2023/10/15 06:32:14;;;;;;;1.70;0.60;;;6.70;99.90;;;;;;5054116;28;20266;-50
2023/10/15 06:34:41;;;;;;;2.60;0.80;;;6.70;99.90;;;;;;5072471;28;20549;-48
2023/10/15 06:37:08;;;;;;;3.90;0.70;;;6.70;99.90;;;;;;5082164;28;20278;-46
2023/10/15 06:39:35;;;;;;;3.43;0.63;;;6.70;99.90;;;;;;5080706;28;20279;-48
2023/10/15 06:42:03;;;;;;;5.30;0.70;;;6.70;99.90;;;;;;5080497;28;20720;-46
2023/10/15 06:44:31;;;;;;;2.80;0.70;;;6.70;99.90;;;;;;5058821;28;20725;-49
2023/10/15 06:46:58;;;;;;;2.87;1.00;;;6.70;99.90;;;;;;5049832;28;21099;-46
2023/10/15 06:49:25;;;;;;;3.57;0.70;;;6.70;99.90;;;;;;5081383;28;20267;-47
2023/10/15 06:51:52;;;;;;;2.47;0.60;;;6.70;99.90;;;;;;5071386;28;20260;-47
2023/10/15 06:54:19;;;;;;;3.73;0.60;;;6.70;99.90;;;;;;5078201;28;20733;-45
2023/10/15 06:56:45;;;;;;;2.33;0.40;;;6.80;99.90;;;;;;5076951;28;20197;-45
2023/10/15 06:59:17;;;;;;;3.50;0.70;;;6.80;99.90;;;;;;5080765;28;20696;-48
2023/10/15 07:01:44;;;;;;;1.80;0.80;;;6.90;99.90;;;;;;5083347;28;20290;-47
2023/10/15 07:04:11;;;;;;;2.47;0.60;;;6.90;99.90;;;;;;5057493;28;20201;-48
2023/10/15 07:06:39;;;;;;;0.77;0.60;;;7.00;99.90;;;;;;5071886;28;20212;-48
2023/10/15 07:09:06;;;;;;;1.80;0.67;;;7.00;99.90;;;;;;5083556;28;20277;-44
2023/10/15 07:11:35;;;;;;;2.80;0.60;;;7.10;99.90;;;;;;5079166;28;20216;-44
2023/10/15 07:14:02;;;;;;;1.27;0.60;;;7.00;99.90;;;;;;5081657;28;20259;-50
2023/10/15 07:16:30;;;;;;;1.20;0.50;;;7.00;99.90;;;;;;5080729;28;20212;-46
2023/10/15 07:18:56;;;;;;;0.80;0.40;;;6.90;99.90;;;;;;5049543;28;20198;-46
2023/10/15 07:21:25;;;;;;;1.83;0.47;;;6.90;99.90;;;;;;5083120;28;20214;-46
2023/10/15 07:23:53;;;;;;;1.27;0.60;;;6.80;99.90;;;;;;5070822;28;20206;-46
2023/10/15 07:26:20;;;;;;;0.83;0.50;;;6.80;99.90;;;;;;5081120;28;20190;-47
2023/10/15 07:28:46;;;;;;;1.50;0.50;;;6.80;99.90;;;;;;5085933;28;20805;-46
2023/10/15 07:31:13;;;;;;;1.03;0.60;;;6.80;99.90;;;;;;5090994;28;20221;-47
2023/10/15 07:33:42;;;;;;;2.63;0.60;;;6.90;99.90;;;;;;5061679;28;20203;-44
2023/10/15 07:36:09;;;;;;;1.27;0.37;;;6.80;99.90;;;;;;5090377;28;20206;-44
2023/10/15 07:38:36;;;;;;;2.33;0.63;;;6.80;99.90;;;;;;5074553;28;20550;-46
2023/10/15 07:41:05;;;;;;;4.80;0.53;;;6.80;99.90;;;;;;5086241;28;20221;-46
2023/10/15 07:43:32;;;;;;;3.80;0.60;;;6.90;99.90;;;;;;5085197;28;20609;-44
2023/10/15 07:45:59;;;;;;;1.50;0.50;;;6.80;99.90;;;;;;5083873;28;20197;-49
2023/10/15 07:48:27;;;;;;;4.47;0.77;;;6.80;99.90;;;;;;5081838;28;20205;-44
2023/10/15 07:50:55;;;;;;;2.43;0.77;;;6.80;99.90;;;;;;5060786;28;20644;-49
2023/10/15 07:53:22;;;;;;;6.00;1.37;;;6.80;99.90;;;;;;5072861;28;20194;-48
2023/10/15 07:55:49;;;;;;;3.07;0.60;;;6.80;99.90;;;;;;5079884;28;20201;-49
2023/10/15 07:58:15;;;;;;;1.63;0.50;;;6.80;99.90;;;;;;5080426;28;20206;-48
2023/10/15 08:00:42;;;;;;;1.87;0.50;;;6.80;99.90;;;;;;5081115;28;20233;-47
2023/10/15 08:03:10;;;;;;;1.13;0.50;;;6.80;99.90;;;;;;5088259;28;20200;-45
2023/10/15 08:05:39;;;;;;;2.93;0.60;;;6.80;99.90;;;;;;5062714;28;20208;-46
2023/10/15 08:08:07;;;;;;;2.87;0.73;;;6.80;99.90;;;;;;5086178;28;20194;-47
2023/10/15 08:10:36;;;;;;;3.60;0.57;;;6.80;99.90;;;;;;5068943;28;20249;-47
2023/10/15 08:13:04;;;;;;;3.40;0.73;;;6.80;99.90;;;;;;5086841;28;20197;-46
2023/10/15 08:15:33;;;;;;;2.53;0.80;;;6.80;99.90;;;;;;5083796;28;20198;-45
2023/10/15 08:18:01;;;;;;;1.50;0.60;;;6.80;99.90;;;;;;5083764;28;20205;-49
2023/10/15 08:20:28;;;;;;;2.23;0.60;;;6.80;99.90;;;;;;5062047;28;20293;-46
2023/10/15 08:22:55;;;;;;;1.37;0.40;;;6.80;99.90;;;;;;5068531;28;20204;-47
2023/10/15 08:25:23;;;;;;;2.23;0.50;;;6.90;99.90;;;;;;5081263;28;20709;-46
2023/10/15 08:27:50;;;;;;;0.87;0.30;;;7.00;99.90;;;;;;5085546;28;20193;-45
2023/10/15 08:30:17;;;;;;;0.50;0.40;;;7.00;99.90;;;;;;5088524;28;20221;-46
2023/10/15 08:32:45;;;;;;;0.43;0.23;;;7.00;99.90;;;;;;5085674;28;20200;-47
2023/10/15 08:35:13;;;;;;;1.53;0.20;;;7.00;99.90;;;;;;5087334;28;20725;-48
2023/10/15 08:37:40;;;;;;;0.63;0.40;;;7.00;99.90;;;;;;5061251;28;20197;-47
2023/10/15 08:40:08;;;;;;;0.73;0.30;;;7.00;99.90;;;;;;5092515;28;20212;-45
2023/10/15 08:42:42;;;;;;;2.87;0.30;;;7.10;99.90;;;;;;5071751;28;20198;-49
2023/10/15 08:45:10;;;;;;;1.50;0.40;;;7.20;99.90;;;;;;5086197;28;20197;-48
2023/10/15 08:47:38;;;;;;;2.90;0.43;;;7.30;99.90;;;;;;5075375;28;20194;-45
2023/10/15 08:50:10;;;;;;;1.60;0.40;;;7.30;99.90;;;;;;5089133;28;20262;-48
2023/10/15 08:52:37;;;;;;;1.33;0.40;;;7.30;99.90;;;;;;5056697;28;20644;-49
2023/10/15 08:55:06;;;;;;;0.87;0.43;;;7.30;99.90;;;;;;5085715;28;20226;-46
2023/10/15 08:57:34;;;;;;;3.70;0.50;;;7.30;99.90;;;;;;5076976;28;20277;-50
2023/10/15 09:00:04;;;;;;;0.90;0.47;;;7.20;99.90;;;;;;5086109;28;20220;-47
2023/10/15 09:02:31;;;;;;;1.17;0.60;;;7.10;99.90;;;;;;5082849;28;20182;-45
2023/10/15 09:04:58;;;;;;;0.33;0.23;;;7.10;99.90;;;;;;5086673;28;20219;-47
2023/10/15 09:07:25;;;;;;;0.60;0.37;;;7.10;99.90;;;;;;5058788;28;20255;-45
2023/10/15 09:09:52;;;;;;;3.53;0.53;;;7.10;99.90;;;;;;5083301;28;20198;-49
2023/10/15 09:12:21;;;;;;;2.27;0.57;;;7.10;99.90;;;;;;5076484;28;20228;-45
2023/10/15 09:14:47;;;;;;;1.23;0.27;;;7.20;99.90;;;;;;5085684;28;20714;-47
2023/10/15 09:17:18;;;;;;;1.60;0.73;;;7.40;99.90;;;;;;5082529;28;20197;-45
2023/10/15 09:19:46;;;;;;;1.60;0.50;;;7.50;99.90;;;;;;5080604;28;20205;-45
2023/10/15 09:22:15;;;;;;;0.90;0.33;;;7.50;99.90;;;;;;5077296;28;20192;-49
2023/10/15 09:24:42;;;;;;;2.23;0.47;;;7.60;99.90;;;;;;5079175;28;20278;-48
2023/10/15 09:27:09;;;;;;;1.73;0.40;;;7.50;99.90;;;;;;5071333;28;20271;-46
2023/10/15 09:29:35;;;;;;;1.57;0.43;;;7.50;99.90;;;;;;5084675;28;20186;-50
2023/10/15 09:32:04;;;;;;;2.27;0.70;;;7.40;99.90;;;;;;5085243;28;20236;-45
2023/10/15 09:34:37;;;;;;;3.53;0.63;;;7.30;99.90;;;;;;5084416;28;20223;-49
2023/10/15 09:37:05;;;;;;;1.33;0.67;;;7.30;99.90;;;;;;5085366;28;20543;-45
2023/10/15 09:39:32;;;;;;;2.40;0.80;;;7.30;99.90;;;;;;5066704;28;21048;-46
2023/10/15 09:42:02;;;;;;;2.23;0.63;;;7.30;99.90;;;;;;5078383;28;20661;-45
2023/10/15 09:44:32;;;;;;;3.27;0.70;;;7.30;99.90;;;;;;5082014;28;20243;-45
2023/10/15 09:47:01;;;;;;;3.13;0.70;;;7.40;99.90;;;;;;5085256;28;20202;-45
2023/10/15 09:49:30;;;;;;;2.47;0.77;;;7.50;99.90;;;;;;5080538;28;20186;-47
2023/10/15 09:52:04;;;;;;;2.47;0.60;;;7.60;99.90;;;;;;5085745;28;20263;-47
2023/10/15 09:54:33;;;;;;;3.20;0.70;;;7.50;99.90;;;;;;5061672;28;20217;-48
2023/10/15 09:57:02;;;;;;;0.97;0.70;;;7.50;99.90;;;;;;5087179;28;20255;-45
2023/10/15 09:59:29;;;;;;;1.03;0.53;;;7.50;99.90;;;;;;5073437;28;20864;-46
2023/10/15 10:02:05;;;;;;;0.70;0.40;;;7.50;99.90;;;;;;5084950;28;20212;-45
2023/10/15 10:05:01;;;;;;;3.23;0.97;;;7.70;99.90;;;;;;5071673;28;20208;-49
2023/10/15 10:07:47;;;;;;;2.20;0.93;;;7.90;99.90;;;;;;5082786;28;20263;-47
2023/10/15 10:10:52;;;;;;;1.77;0.70;;;8.10;99.90;;;;;;5061198;28;20213;-45
2023/10/15 10:13:40;;;;;;;0.77;0.70;;;8.20;99.90;;;;;;5048375;28;20217;-47
2023/10/15 10:16:17;;;;;;;1.80;0.57;;;8.20;99.90;;;;;;5081264;28;20656;-50
2023/10/15 10:18:45;;;;;;;2.83;0.97;;;8.20;99.90;;;;;;5085213;28;20196;-45
2023/10/15 10:21:13;;;;;;;1.50;0.73;;;8.10;99.90;;;;;;5081574;28;20214;-46
2023/10/15 10:23:42;;;;;;;2.87;0.73;;;7.90;99.90;;;;;;5063175;28;20212;-46
2023/10/15 10:26:12;;;;;;;2.10;0.50;;;7.90;99.90;;;;;;5082627;28;20200;-48
2023/10/15 10:28:40;;;;;;;2.37;0.63;;;8.00;99.90;;;;;;5078114;28;20198;-46
2023/10/15 10:31:07;;;;;;;3.10;0.80;;;8.10;99.90;;;;;;5080155;28;20202;-48
2023/10/15 10:33:53;;;;;;;3.43;0.80;;;8.10;99.90;;;;;;5082716;28;20904;-47
2023/10/15 10:36:21;;;;;;;1.43;0.53;;;8.10;99.90;;;;;;5082246;28;20859;-49
2023/10/15 10:38:59;;;;;;;1.53;0.70;;;8.10;99.90;;;;;;5087057;28;20201;-48
2023/10/15 10:41:35;;;;;;;2.03;0.60;;;8.20;99.90;;;;;;5071245;28;20217;-49
2023/10/15 10:44:02;;;;;;;2.10;0.60;;;8.30;99.90;;;;;;5075914;28;20208;-47
2023/10/15 10:46:29;;;;;;;1.93;0.70;;;8.30;99.90;;;;;;5087333;28;20201;-45
2023/10/15 10:49:07;;;;;;;5.17;0.93;;;8.40;99.90;;;;;;5082488;28;20194;-45
2023/10/15 10:51:34;;;;;;;2.93;0.73;;;8.40;99.90;;;;;;5082870;28;20244;-47
2023/10/15 10:54:28;;;;;;;2.07;1.10;;;8.40;99.90;;;;;;5083818;28;20593;-45
2023/10/15 10:57:07;;;;;;;0.77;0.50;;;8.40;99.90;;;;;;5062579;28;20374;-44
2023/10/15 10:59:36;;;;;;;1.47;0.50;;;8.50;99.90;;;;;;5063915;28;20193;-47
2023/10/15 11:02:06;;;;;;;4.33;0.90;;;8.50;99.90;;;;;;5078517;28;20212;-46
2023/10/15 11:04:33;;;;;;;4.00;0.70;;;8.50;99.90;;;;;;5092824;28;20201;-45
2023/10/15 11:07:03;;;;;;;2.77;0.90;;;8.60;99.90;;;;;;5070382;28;20841;-45
2023/10/15 11:09:31;;;;;;;3.47;0.90;;;8.80;99.90;;;;;;5089441;28;20296;-47
2023/10/15 11:11:58;;;;;;;4.73;0.70;;;8.90;99.90;;;;;;5075340;28;20213;-46
2023/10/15 11:14:27;;;;;;;2.00;0.53;;;9.00;99.90;;;;;;5090836;28;20255;-47
2023/10/15 11:16:55;;;;;;;5.27;0.90;;;9.00;99.90;;;;;;5078515;28;20887;-45
2023/10/15 11:19:24;;;;;;;2.40;0.97;;;8.90;99.90;;;;;;5082333;28;20211;-49
2023/10/15 11:21:52;;;;;;;2.97;1.10;;;9.00;99.90;;;;;;5082720;28;20266;-48
2023/10/15 11:24:20;;;;;;;3.03;0.87;;;9.00;99.90;;;;;;5092094;28;20652;-45
2023/10/15 11:26:48;;;;;;;2.30;0.80;;;9.10;99.90;;;;;;5066563;28;20222;-46
2023/10/15 11:29:18;;;;;;;2.97;0.80;;;9.00;99.90;;;;;;5087879;28;20190;-44
2023/10/15 11:31:48;;;;;;;1.87;0.70;;;9.10;99.90;;;;;;5075718;28;20270;-45
2023/10/15 11:34:18;;;;;;;3.47;0.80;;;9.10;99.90;;;;;;5085039;28;20297;-47
2023/10/15 11:36:48;;;;;;;3.37;0.97;;;9.20;99.90;;;;;;5082621;28;20194;-44
2023/10/15 11:39:19;;;;;;;1.90;0.60;;;9.30;99.90;;;;;;5086108;28;20676;-44
2023/10/15 11:41:55;;;;;;;2.40;0.53;;;9.40;99.90;;;;;;5065967;28;20297;-50
2023/10/15 11:44:26;;;;;;;5.30;0.87;;;9.40;99.90;;;;;;5087625;28;20200;-44
2023/10/15 11:46:55;;;;;;;1.73;0.70;;;9.30;99.90;;;;;;5076639;28;20206;-49
2023/10/15 11:49:23;;;;;;;9.47;2.37;;;9.40;99.90;;;;;;5086128;28;20743;-48
2023/10/15 11:51:55;;;;;;;1.40;0.70;;;9.40;99.90;;;;;;5083136;28;20296;-48
2023/10/15 11:54:25;;;;;;;3.80;1.33;;;9.40;99.90;;;;;;5085828;28;20194;-47
2023/10/15 11:56:56;;;;;;;3.27;1.03;;;9.40;99.90;;;;;;5063321;28;20259;-44
2023/10/15 11:59:23;;;;;;;1.23;0.63;;;9.50;99.90;;;;;;5086602;28;20684;-47
2023/10/15 12:01:51;;;;;;;2.23;0.80;;;9.60;99.90;;;;;;5076628;28;20222;-45
2023/10/15 12:04:19;;;;;;;1.40;0.63;;;9.60;99.90;;;;;;5082096;28;20255;-46
2023/10/15 12:06:46;;;;;;;2.47;0.70;;;9.60;99.90;;;;;;5083932;28;20193;-46
2023/10/15 12:09:16;;;;;;;3.33;0.87;;;9.60;99.90;;;;;;5094022;28;20279;-46
2023/10/15 12:11:44;;;;;;;2.27;0.73;;;9.60;99.90;;;;;;5070370;28;20213;-47
2023/10/15 12:14:12;;;;;;;2.67;0.83;;;9.60;99.90;;;;;;5087918;28;20200;-45
2023/10/15 12:16:40;;;;;;;1.47;0.50;;;9.70;99.90;;;;;;5073696;28;20230;-49
2023/10/15 12:19:09;;;;;;;1.03;0.60;;;9.70;99.90;;;;;;5082946;28;20273;-47
2023/10/15 12:21:36;;;;;;;0.97;0.50;;;9.80;99.90;;;;;;5066483;28;20313;-49
2023/10/15 12:24:04;;;;;;;3.13;0.80;;;9.90;99.90;;;;;;5082541;28;20188;-44
2023/10/15 12:26:31;;;;;;;2.87;0.90;;;10.00;99.90;;;;;;5065157;28;20315;-46
2023/10/15 12:28:58;;;;;;;4.50;1.00;;;10.10;99.90;;;;;;5081260;28;20206;-44
2023/10/15 12:31:27;;;;;;;5.20;0.93;;;10.10;99.90;;;;;;5088063;28;20221;-44
2023/10/15 12:33:55;;;;;;;6.40;0.77;;;10.10;99.90;;;;;;5072710;28;20903;-47
2023/10/15 12:36:22;;;;;;;1.70;0.60;;;10.10;99.90;;;;;;5088742;28;20192;-47
2023/10/15 12:38:49;;;;;;;3.57;0.70;;;10.20;99.90;;;;;;5081528;28;20198;-44
2023/10/15 12:41:21;;;;;;;3.07;0.60;;;10.20;99.90;;;;;;5066268;28;20635;-45
2023/10/15 12:43:49;;;;;;;5.17;0.97;;;10.30;99.90;;;;;;5064865;28;20260;-45
2023/10/15 12:46:17;;;;;;;1.63;0.90;;;10.20;99.90;;;;;;5084380;28;20545;-46
2023/10/15 12:48:45;;;;;;;2.90;0.83;;;10.20;99.90;;;;;;5078621;28;20299;-48
2023/10/15 12:51:12;;;;;;;3.00;0.80;;;10.10;99.90;;;;;;5090435;28;20206;-44
2023/10/15 12:53:39;;;;;;;6.67;0.90;;;10.10;99.90;;;;;;5082448;28;20198;-45
2023/10/15 12:56:06;;;;;;;5.00;0.77;;;10.20;99.90;;;;;;5085849;28;20181;-47
2023/10/15 12:58:33;;;;;;;2.67;0.80;;;10.20;99.90;;;;;;5067162;28;20293;-47
2023/10/15 13:00:59;;;;;;;4.67;1.90;;;10.30;99.90;;;;;;5081005;28;20228;-44
2023/10/15 13:03:28;;;;;;;3.90;0.50;;;10.30;99.90;;;;;;5078925;28;20717;-49
2023/10/15 13:05:56;;;;;;;4.37;0.60;;;10.40;99.90;;;;;;5067336;28;20822;-46
2023/10/15 13:08:23;;;;;;;3.07;0.57;;;10.50;99.90;;;;;;5086124;28;20728;-45